createdAt,value
2018-11-27T00:00:36.260Z,5.10
2018-11-27T00:03:07.670Z,4.28
2018-11-27T00:05:38.261Z,4.53
2018-11-27T00:08:07.988Z,4.28
2018-11-27T00:10:39.388Z,4.05
2018-11-27T00:13:08.384Z,4.37
2018-11-27T00:15:37.319Z,4.12
2018-11-27T00:18:06.191Z,4.62
2018-11-27T00:20:35.513Z,6.47
2018-11-27T00:23:05.372Z,5.80
2018-11-27T00:25:34.640Z,6.05
2018-11-27T00:28:03.800Z,5.78
2018-11-27T00:30:32.622Z,6.15
2018-11-27T00:33:01.395Z,6.12
2018-11-27T00:35:30.007Z,6.37
2018-11-27T00:37:59.472Z,7.00
2018-11-27T00:40:28.416Z,7.15
2018-11-27T00:42:57.391Z,8.55
2018-11-27T00:45:25.979Z,9.03
2018-11-27T00:47:55.716Z,5.72
2018-11-27T00:50:24.998Z,9.15
2018-11-27T00:52:53.848Z,7.80
2018-11-27T00:55:22.573Z,7.65
2018-11-27T00:57:52.827Z,6.90
2018-11-27T01:00:22.873Z,7.60
2018-11-27T01:02:51.913Z,6.17
2018-11-27T01:05:22.192Z,5.70
2018-11-27T01:07:50.917Z,5.90
2018-11-27T01:10:22.747Z,5.85
2018-11-27T01:12:51.698Z,4.62
2018-11-27T01:15:20.603Z,3.70
2018-11-27T01:17:52.465Z,5.72
2018-11-27T01:20:22.663Z,5.72
2018-11-27T01:22:52.469Z,4.17
2018-11-27T01:25:21.863Z,7.55
2018-11-27T01:27:51.541Z,6.55
2018-11-27T01:30:22.274Z,7.42
2018-11-27T01:32:51.287Z,6.87
2018-11-27T01:35:21.801Z,7.37
2018-11-27T01:37:52.227Z,5.35
2018-11-27T01:40:23.031Z,7.80
2018-11-27T01:42:53.112Z,8.25
2018-11-27T01:45:22.861Z,6.78
2018-11-27T01:47:52.265Z,6.20
2018-11-27T01:50:22.025Z,5.45
2018-11-27T01:52:51.480Z,4.67
2018-11-27T01:55:21.508Z,4.55
2018-11-27T01:57:51.012Z,3.77
2018-11-27T02:00:25.232Z,3.92
2018-11-27T02:02:54.810Z,4.05
2018-11-27T02:05:24.302Z,4.45
2018-11-27T02:07:53.295Z,4.50
2018-11-27T02:10:22.147Z,5.20
2018-11-27T02:12:52.637Z,3.83
2018-11-27T02:15:22.642Z,3.27
2018-11-27T02:17:51.861Z,3.85
2018-11-27T02:20:21.326Z,4.58
2018-11-27T02:22:50.077Z,4.15
2018-11-27T02:25:23.250Z,4.37
2018-11-27T02:27:52.971Z,5.75
2018-11-27T02:30:23.098Z,5.00
2018-11-27T02:32:51.863Z,4.12
2018-11-27T02:35:22.556Z,5.08
2018-11-27T02:37:54.278Z,4.47
2018-11-27T02:40:23.593Z,6.03
2018-11-27T02:42:52.817Z,5.47
2018-11-27T02:45:22.692Z,5.28
2018-11-27T02:47:52.256Z,5.85
2018-11-27T02:50:21.979Z,6.83
2018-11-27T02:52:51.542Z,6.67
2018-11-27T02:55:22.943Z,5.17
2018-11-27T02:57:51.820Z,5.60
2018-11-27T03:00:22.834Z,6.08
2018-11-27T03:02:52.353Z,5.37
2018-11-27T03:05:26.761Z,6.28
2018-11-27T03:07:55.541Z,6.03
2018-11-27T03:10:24.922Z,5.12
2018-11-27T03:12:53.587Z,5.33
2018-11-27T03:15:22.497Z,5.15
2018-11-27T03:17:51.696Z,5.30
2018-11-27T03:20:20.409Z,4.05
2018-11-27T03:22:49.285Z,4.15
2018-11-27T03:25:19.407Z,4.72
2018-11-27T03:27:49.376Z,5.60
2018-11-27T03:30:20.263Z,4.08
2018-11-27T03:32:49.308Z,4.20
2018-11-27T03:35:20.617Z,5.55
2018-11-27T03:37:49.920Z,5.12
2018-11-27T03:40:20.689Z,4.33
2018-11-27T03:42:49.344Z,4.45
2018-11-27T03:45:18.794Z,4.35
2018-11-27T03:47:47.724Z,3.83
2018-11-27T03:50:18.597Z,4.78
2018-11-27T03:52:48.053Z,4.42
2018-11-27T03:55:17.678Z,3.92
2018-11-27T03:57:46.484Z,4.92
2018-11-27T04:00:16.455Z,3.72
2018-11-27T04:02:47.258Z,4.40
2018-11-27T04:05:16.094Z,4.47
2018-11-27T04:07:45.303Z,4.00
2018-11-27T04:10:15.733Z,4.72
2018-11-27T04:12:45.021Z,4.05
2018-11-27T04:15:14.187Z,4.78
2018-11-27T04:17:43.456Z,4.60
2018-11-27T04:20:13.493Z,4.75
2018-11-27T04:22:43.329Z,4.80
2018-11-27T04:25:15.185Z,4.95
2018-11-27T04:27:44.544Z,4.92
2018-11-27T04:30:17.649Z,5.03
2018-11-27T04:32:46.293Z,5.70
2018-11-27T04:35:17.025Z,5.58
2018-11-27T04:37:45.714Z,5.53
2018-11-27T04:40:17.019Z,5.33
2018-11-27T04:42:45.874Z,5.10
2018-11-27T04:45:16.208Z,6.37
2018-11-27T04:47:45.021Z,5.45
2018-11-27T04:50:15.664Z,6.62
2018-11-27T04:52:44.970Z,6.12
2018-11-27T04:55:15.508Z,8.63
2018-11-27T04:57:45.021Z,6.60
2018-11-27T05:00:15.741Z,5.62
2018-11-27T05:02:44.688Z,3.85
2018-11-27T05:05:13.694Z,3.42
2018-11-27T05:07:42.266Z,4.35
2018-11-27T05:10:15.548Z,5.33
2018-11-27T05:12:45.504Z,5.47
2018-11-27T05:15:16.958Z,6.70
2018-11-27T05:17:48.262Z,5.70
2018-11-27T05:20:16.710Z,4.62
2018-11-27T05:22:46.168Z,4.95
2018-11-27T05:25:16.141Z,4.97
2018-11-27T05:27:54.250Z,5.42
2018-11-27T05:30:24.705Z,5.05
2018-11-27T05:32:53.285Z,4.37
2018-11-27T05:35:25.476Z,4.15
2018-11-27T05:37:54.245Z,3.87
2018-11-27T05:40:24.246Z,3.75
2018-11-27T05:42:55.588Z,3.00
2018-11-27T05:45:25.064Z,4.05
2018-11-27T05:47:54.453Z,3.55
2018-11-27T05:50:24.023Z,2.72
2018-11-27T05:52:52.717Z,3.62
2018-11-27T05:55:22.097Z,3.27
2018-11-27T05:57:52.808Z,3.25
2018-11-27T06:00:23.769Z,5.20
2018-11-27T06:02:54.606Z,4.25
2018-11-27T06:05:24.238Z,3.65
2018-11-27T06:07:53.692Z,5.12
2018-11-27T06:10:23.478Z,5.17
2018-11-27T06:12:52.790Z,6.87
2018-11-27T06:15:23.697Z,7.15
2018-11-27T06:17:54.786Z,6.40
2018-11-27T06:20:24.147Z,8.58
2018-11-27T06:22:53.607Z,5.33
2018-11-27T06:25:24.223Z,6.22
2018-11-27T06:27:56.688Z,4.97
2018-11-27T06:30:26.749Z,4.45
2018-11-27T06:32:55.749Z,4.90
2018-11-27T06:35:28.599Z,4.85
2018-11-27T06:37:57.406Z,5.10
2018-11-27T06:40:28.482Z,5.22
2018-11-27T06:42:57.837Z,7.62
2018-11-27T06:45:27.386Z,5.20
2018-11-27T06:47:56.260Z,5.78
2018-11-27T06:50:25.499Z,7.55
2018-11-27T06:52:55.054Z,10.45
2018-11-27T06:55:24.804Z,7.65
2018-11-27T06:57:53.909Z,4.35
2018-11-27T07:00:25.892Z,5.35
2018-11-27T07:02:55.290Z,5.42
2018-11-27T07:05:24.139Z,4.25
2018-11-27T07:07:52.917Z,3.70
2018-11-27T07:10:32.184Z,5.22
2018-11-27T07:13:06.930Z,5.08
2018-11-27T07:15:35.614Z,5.28
2018-11-27T07:18:05.375Z,4.62
2018-11-27T07:20:34.216Z,5.53
2018-11-27T07:23:03.184Z,4.53
2018-11-27T07:25:32.612Z,4.70
2018-11-27T07:28:01.356Z,4.67
2018-11-27T07:30:30.884Z,5.92
2018-11-27T07:33:00.643Z,4.30
2018-11-27T07:35:29.526Z,4.72
2018-11-27T07:37:58.749Z,4.12
2018-11-27T07:40:28.450Z,4.03
2018-11-27T07:42:59.567Z,3.40
2018-11-27T07:45:29.043Z,3.40
2018-11-27T07:47:57.604Z,3.47
2018-11-27T07:50:27.252Z,4.70
2018-11-27T07:52:56.658Z,5.30
2018-11-27T07:55:25.263Z,7.83
2018-11-27T07:57:55.716Z,4.67
2018-11-27T08:00:26.379Z,3.67
2018-11-27T08:02:57.087Z,3.30
2018-11-27T08:05:30.625Z,4.92
2018-11-27T08:07:59.624Z,3.22
2018-11-27T08:10:30.520Z,3.90
2018-11-27T08:12:59.217Z,4.17
2018-11-27T08:15:29.176Z,4.67
2018-11-27T08:17:59.237Z,3.85
2018-11-27T08:20:30.319Z,3.80
2018-11-27T08:22:59.561Z,3.02
2018-11-27T08:25:28.530Z,3.85
2018-11-27T08:27:58.237Z,3.80
2018-11-27T08:30:27.532Z,3.55
2018-11-27T08:33:00.000Z,3.98
2018-11-27T08:35:29.918Z,4.92
2018-11-27T08:38:00.130Z,6.28
2018-11-27T08:40:30.644Z,5.08
2018-11-27T08:43:00.280Z,5.70
2018-11-27T08:45:29.185Z,4.50
2018-11-27T08:47:58.245Z,3.52
2018-11-27T08:50:28.003Z,3.40
2018-11-27T08:52:58.516Z,3.80
2018-11-27T08:55:28.837Z,3.80
2018-11-27T08:57:58.452Z,4.37
2018-11-27T09:00:27.698Z,4.25
2018-11-27T09:02:56.512Z,4.33
2018-11-27T09:05:25.153Z,3.77
2018-11-27T09:07:54.385Z,4.10
2018-11-27T09:10:25.208Z,5.45
2018-11-27T09:12:53.914Z,4.40
2018-11-27T09:15:24.634Z,7.10
2018-11-27T09:18:13.372Z,10.15
2018-11-27T09:20:42.255Z,11.00
2018-11-27T09:23:11.623Z,8.58
2018-11-27T09:25:40.681Z,5.55
2018-11-27T09:28:09.671Z,7.42
2018-11-27T09:30:38.868Z,5.62
2018-11-27T09:33:08.710Z,8.18
2018-11-27T09:35:37.463Z,5.40
2018-11-27T09:38:07.025Z,6.10
2018-11-27T09:40:36.486Z,4.25
2018-11-27T09:43:07.009Z,4.22
2018-11-27T09:45:36.781Z,4.28
2018-11-27T09:48:06.031Z,5.35
2018-11-27T09:50:34.666Z,5.05
2018-11-27T09:53:03.312Z,5.35
2018-11-27T09:55:32.101Z,4.78
2018-11-27T09:58:01.065Z,4.97
2018-11-27T10:00:31.558Z,5.70
2018-11-27T10:03:02.503Z,7.22
2018-11-27T10:05:31.441Z,8.80
2018-11-27T10:08:00.200Z,5.62
2018-11-27T10:10:29.764Z,5.90
2018-11-27T10:12:59.053Z,6.95
2018-11-27T10:15:29.206Z,7.55
2018-11-27T10:18:01.167Z,7.00
2018-11-27T10:20:37.425Z,5.10
2018-11-27T10:23:09.305Z,6.53
2018-11-27T10:25:38.546Z,6.45
2018-11-27T10:28:07.757Z,8.73
2018-11-27T10:30:37.129Z,7.22
2018-11-27T10:33:09.530Z,8.50
2018-11-27T10:35:48.075Z,7.78
2018-11-27T10:38:16.717Z,10.28
2018-11-27T10:40:45.937Z,7.58
2018-11-27T10:43:19.665Z,7.67
2018-11-27T10:45:44.617Z,6.92
2018-11-27T10:48:13.614Z,5.60
2018-11-27T10:50:43.128Z,4.37
2018-11-27T10:53:12.706Z,4.33
2018-11-27T10:55:42.307Z,5.60
2018-11-27T10:58:11.589Z,5.85
2018-11-27T11:00:46.415Z,4.92
2018-11-27T11:03:45.960Z,5.67
2018-11-27T11:06:14.656Z,4.35
2018-11-27T11:08:44.314Z,5.92
2018-11-27T11:11:13.780Z,5.97
2018-11-27T11:13:42.845Z,4.83
2018-11-27T11:16:11.759Z,3.80
2018-11-27T11:18:41.528Z,4.08
2018-11-27T11:21:10.106Z,6.30
2018-11-27T11:23:39.685Z,3.85
2018-11-27T11:26:08.978Z,3.62
2018-11-27T11:28:38.781Z,6.00
2018-11-27T11:31:07.659Z,4.35
2018-11-27T11:33:36.686Z,3.85
2018-11-27T11:36:06.025Z,3.85
2018-11-27T11:38:35.246Z,3.80
2018-11-27T11:41:05.581Z,4.55
2018-11-27T11:43:34.468Z,3.62
2018-11-27T11:46:03.332Z,4.30
2018-11-27T11:48:32.110Z,5.33
2018-11-27T11:51:00.781Z,4.40
2018-11-27T11:53:29.589Z,5.78
2018-11-27T11:55:58.271Z,5.10
2018-11-27T11:58:27.649Z,5.53
2018-11-27T12:00:57.395Z,5.12
2018-11-27T12:03:26.065Z,4.37
2018-11-27T12:05:54.959Z,4.55
2018-11-27T12:08:23.766Z,4.08
2018-11-27T12:10:52.620Z,4.05
2018-11-27T12:13:22.231Z,4.05
2018-11-27T12:15:51.073Z,4.47
2018-11-27T12:18:19.966Z,5.62
2018-11-27T12:20:48.757Z,5.90
2018-11-27T12:23:17.714Z,5.95
2018-11-27T12:25:46.378Z,4.05
2018-11-27T12:28:15.208Z,5.22
2018-11-27T12:30:44.140Z,4.72
2018-11-27T12:33:13.410Z,5.12
2018-11-27T12:35:42.077Z,5.25
2018-11-27T12:38:11.601Z,4.97
2018-11-27T12:40:40.400Z,5.35
2018-11-27T12:43:09.079Z,5.90
2018-11-27T12:45:37.675Z,5.85
2018-11-27T12:48:08.010Z,7.72
2018-11-27T12:50:43.147Z,7.85
2018-11-27T12:53:16.771Z,6.00
2018-11-27T12:55:44.285Z,5.20
2018-11-27T12:58:14.088Z,7.22
2018-11-27T13:00:43.347Z,6.75
2018-11-27T13:03:12.788Z,9.45
2018-11-27T13:05:43.965Z,5.50
2018-11-27T13:08:21.080Z,6.30
2018-11-27T13:10:50.207Z,7.92
2018-11-27T13:13:19.727Z,6.62
2018-11-27T13:15:48.544Z,7.47
2018-11-27T13:18:17.648Z,6.30
2018-11-27T13:20:46.358Z,6.30
2018-11-27T13:23:16.045Z,9.30
2018-11-27T13:25:45.356Z,8.53
2018-11-27T13:28:14.767Z,8.80
2018-11-27T13:38:04.239Z,7.10
2018-11-27T13:40:33.778Z,8.13
2018-11-27T13:43:05.715Z,8.05
2018-11-27T13:45:35.372Z,7.85
2018-11-27T13:48:04.117Z,10.82
2018-11-27T13:50:33.234Z,9.45
2018-11-27T13:53:01.910Z,8.90
2018-11-27T13:55:31.320Z,7.20
2018-11-27T13:58:00.486Z,8.08
2018-11-27T14:00:29.524Z,8.85
2018-11-27T14:02:58.886Z,7.53
2018-11-27T14:05:28.659Z,9.55
2018-11-27T14:07:57.398Z,8.78
2018-11-27T14:10:26.944Z,9.35
2018-11-27T14:12:56.006Z,9.08
2018-11-27T14:15:25.860Z,8.50
2018-11-27T14:17:55.867Z,9.35
2018-11-27T14:20:24.650Z,11.83
2018-11-27T14:22:53.416Z,10.50
2018-11-27T14:25:22.740Z,9.00
2018-11-27T14:27:52.149Z,8.88
2018-11-27T14:30:22.899Z,9.43
2018-11-27T14:32:52.528Z,9.33
2018-11-27T14:35:22.867Z,10.53
2018-11-27T14:37:54.729Z,9.58
2018-11-27T14:40:25.643Z,7.78
2018-11-27T14:42:54.321Z,8.35
2018-11-27T14:45:24.470Z,9.75
2018-11-27T14:47:55.484Z,11.35
2018-11-27T14:50:24.708Z,9.28
2018-11-27T14:52:53.896Z,8.38
2018-11-27T14:55:32.144Z,9.23
2018-11-27T14:58:00.980Z,8.58
2018-11-27T15:00:29.660Z,7.97
2018-11-27T15:02:59.167Z,7.70
2018-11-27T15:05:32.633Z,9.53
2018-11-27T15:08:02.420Z,7.65
2018-11-27T15:10:31.329Z,7.85
2018-11-27T15:13:00.137Z,8.30
2018-11-27T15:15:29.322Z,8.13
2018-11-27T15:17:58.321Z,8.38
2018-11-27T15:20:26.983Z,10.25
2018-11-27T15:22:57.188Z,9.70
2018-11-27T15:25:27.607Z,8.25
2018-11-27T15:27:57.256Z,6.97
2018-11-27T15:30:29.062Z,7.20
2018-11-27T15:32:59.775Z,7.83
2018-11-27T15:35:28.537Z,6.97
2018-11-27T15:37:58.172Z,8.08
2018-11-27T15:40:27.966Z,8.00
2018-11-27T15:42:57.212Z,7.15
2018-11-27T15:45:28.736Z,8.53
2018-11-27T15:47:57.851Z,10.35
2018-11-27T15:50:26.943Z,15.80
2018-11-27T15:52:56.284Z,10.43
2018-11-27T15:55:28.351Z,7.47
2018-11-27T15:57:58.729Z,7.97
2018-11-27T16:00:27.938Z,6.22
2018-11-27T16:02:56.777Z,6.92
2018-11-27T16:05:25.490Z,6.42
2018-11-27T16:07:54.341Z,6.70
2018-11-27T16:10:23.246Z,10.18
2018-11-27T16:12:52.849Z,6.75
2018-11-27T16:15:21.564Z,6.83
2018-11-27T16:17:50.932Z,7.40
2018-11-27T16:20:20.888Z,6.95
2018-11-27T16:22:51.159Z,6.72
2018-11-27T16:25:23.352Z,6.80
2018-11-27T16:27:52.863Z,7.28
2018-11-27T16:30:25.432Z,7.53
2018-11-27T16:32:54.908Z,5.95
2018-11-27T16:35:24.600Z,6.58
2018-11-27T16:37:56.261Z,6.75
2018-11-27T16:40:27.348Z,5.70
2018-11-27T16:42:56.608Z,7.53
2018-11-27T16:45:25.801Z,6.80
2018-11-27T16:47:54.460Z,5.92
2018-11-27T16:50:23.602Z,6.00
2018-11-27T16:52:54.085Z,6.78
2018-11-27T16:55:24.196Z,6.70
2018-11-27T16:57:53.297Z,6.58
2018-11-27T17:00:31.342Z,6.67
2018-11-27T17:03:01.301Z,7.08
2018-11-27T17:05:31.567Z,7.22
2018-11-27T17:08:00.228Z,6.45
2018-11-27T17:10:29.004Z,7.60
2018-11-27T17:12:58.377Z,6.45
2018-11-27T17:15:28.194Z,6.60
2018-11-27T17:17:57.485Z,6.62
2018-11-27T17:20:34.709Z,6.30
2018-11-27T17:23:05.225Z,6.42
2018-11-27T17:25:34.400Z,6.17
2018-11-27T17:28:27.940Z,5.75
2018-11-27T17:31:01.517Z,6.50
2018-11-27T17:33:34.831Z,7.97
2018-11-27T17:36:05.063Z,5.97
2018-11-27T17:38:33.834Z,6.47
2018-11-27T17:41:03.507Z,9.33
2018-11-27T17:43:32.675Z,6.45
2018-11-27T17:46:01.465Z,7.05
2018-11-27T17:48:30.269Z,7.30
2018-11-27T17:50:59.183Z,7.22
2018-11-27T17:53:28.139Z,7.22
2018-11-27T17:55:58.202Z,8.43
2018-11-27T17:58:28.166Z,7.92
2018-11-27T18:00:57.608Z,7.75
2018-11-27T18:03:27.431Z,6.58
2018-11-27T18:05:56.386Z,9.58
2018-11-27T18:08:26.023Z,8.80
2018-11-27T18:10:55.407Z,9.03
2018-11-27T18:13:24.717Z,11.25
2018-11-27T18:15:53.624Z,7.05
2018-11-27T18:18:23.783Z,7.12
2018-11-27T18:20:53.180Z,6.60
2018-11-27T18:23:22.414Z,6.85
2018-11-27T18:25:52.237Z,6.65
2018-11-27T18:28:21.404Z,7.30
2018-11-27T18:30:51.289Z,7.45
2018-11-27T18:33:21.357Z,7.37
2018-11-27T18:35:51.142Z,8.63
2018-11-27T18:38:21.621Z,7.22
2018-11-27T18:40:50.604Z,9.35
2018-11-27T18:43:19.825Z,7.58
2018-11-27T18:45:49.452Z,9.05
2018-11-27T18:48:18.987Z,8.33
2018-11-27T18:50:48.559Z,9.80
2018-11-27T18:53:17.634Z,9.65
2018-11-27T18:55:46.709Z,9.35
2018-11-27T18:58:15.426Z,10.15
2018-11-27T19:00:46.502Z,9.30
2018-11-27T19:03:16.166Z,9.83
2018-11-27T19:05:45.362Z,12.25
2018-11-27T19:08:14.233Z,8.35
2018-11-27T19:10:43.974Z,8.33
2018-11-27T19:13:13.304Z,8.88
2018-11-27T19:15:43.920Z,9.03
2018-11-27T19:18:17.652Z,8.20
2018-11-27T19:20:46.847Z,8.45
2018-11-27T19:23:17.588Z,8.40
2018-11-27T19:25:47.430Z,10.72
2018-11-27T19:28:16.483Z,9.23
2018-11-27T19:30:46.644Z,7.75
2018-11-27T19:33:15.713Z,8.80
2018-11-27T19:35:45.281Z,8.45
2018-11-27T19:38:15.779Z,10.13
2018-11-27T19:40:45.090Z,8.98
2018-11-27T19:43:14.316Z,10.00
2018-11-27T19:45:43.186Z,9.95
2018-11-27T19:48:13.625Z,9.60
2018-11-27T19:50:43.357Z,9.88
2018-11-27T19:53:13.671Z,10.70
2018-11-27T19:55:43.334Z,11.45
2018-11-27T19:58:12.874Z,9.88
2018-11-27T20:00:42.027Z,9.90
2018-11-27T20:03:12.187Z,12.23
2018-11-27T20:05:42.685Z,12.55
2018-11-27T20:08:13.955Z,11.20
2018-11-27T20:10:43.346Z,10.63
2018-11-27T20:13:13.378Z,10.13
2018-11-27T20:15:42.842Z,9.10
2018-11-27T20:18:18.885Z,9.53
2018-11-27T20:20:48.571Z,10.48
2018-11-27T20:23:18.149Z,10.48
2018-11-27T20:25:48.147Z,8.75
2018-11-27T20:28:18.370Z,9.30
2018-11-27T20:30:48.059Z,9.93
2018-11-27T20:33:17.391Z,11.55
2018-11-27T20:35:46.783Z,11.60
2018-11-27T20:38:16.292Z,10.30
2018-11-27T20:40:45.802Z,11.03
2018-11-27T20:43:15.387Z,11.95
2018-11-27T20:45:44.321Z,10.60
2018-11-27T20:48:18.357Z,9.83
2018-11-27T20:50:52.960Z,10.60
2018-11-27T20:53:22.192Z,11.05
2018-11-27T20:55:51.862Z,12.70
2018-11-27T20:58:21.278Z,10.78
2018-11-27T21:00:51.778Z,11.20
2018-11-27T21:03:21.003Z,12.15
2018-11-27T21:05:51.228Z,11.65
2018-11-27T21:08:20.808Z,10.38
2018-11-27T21:10:50.256Z,10.93
2018-11-27T21:13:19.545Z,9.58
2018-11-27T21:15:48.914Z,10.53
2018-11-27T21:18:18.557Z,9.68
2018-11-27T21:20:48.631Z,13.20
2018-11-27T21:23:17.836Z,11.80
2018-11-27T21:25:47.538Z,9.80
2018-11-27T21:28:19.194Z,8.98
2018-11-27T21:30:51.535Z,10.43
2018-11-27T21:33:21.116Z,9.15
2018-11-27T21:35:50.727Z,9.88
2018-11-27T21:38:19.873Z,9.65
2018-11-27T21:40:49.455Z,10.45
2018-11-27T21:43:19.209Z,10.48
2018-11-27T21:45:48.471Z,9.68
2018-11-27T21:48:17.821Z,10.20
2018-11-27T21:50:46.692Z,9.85
2018-11-27T21:53:15.749Z,9.85
2018-11-27T21:55:44.756Z,10.28
2018-11-27T21:58:14.091Z,9.90
2018-11-27T22:00:43.999Z,10.43
2018-11-27T22:03:13.403Z,9.63
2018-11-27T22:05:43.198Z,10.72
2018-11-27T22:08:12.318Z,11.95
2018-11-27T22:10:41.823Z,13.22
2018-11-27T22:13:13.425Z,11.50
2018-11-27T22:15:43.909Z,9.50
2018-11-27T22:18:13.720Z,9.88
2018-11-27T22:20:42.867Z,12.18
2018-11-27T22:23:14.889Z,13.98
2018-11-27T22:25:43.792Z,10.72
2018-11-27T22:28:12.651Z,11.60
2018-11-27T22:30:41.467Z,9.18
2018-11-27T22:33:10.973Z,11.03
2018-11-27T22:35:40.257Z,10.15
2018-11-27T22:38:10.187Z,10.72
2018-11-27T22:40:39.531Z,11.33
2018-11-27T22:43:09.226Z,10.55
2018-11-27T22:45:39.587Z,10.95
2018-11-27T22:48:10.033Z,10.45
2018-11-27T22:50:38.817Z,12.23
2018-11-27T22:53:09.192Z,11.25
2018-11-27T22:55:38.308Z,12.37
2018-11-27T22:58:08.206Z,11.03
2018-11-27T23:00:42.587Z,10.58
2018-11-27T23:03:12.164Z,12.43
2018-11-27T23:05:41.585Z,11.00
2018-11-27T23:08:10.202Z,10.25
2018-11-27T23:10:40.735Z,10.93
2018-11-27T23:13:10.403Z,12.20
2018-11-27T23:15:39.417Z,17.87
2018-11-27T23:18:08.528Z,12.33
2018-11-27T23:20:37.937Z,13.03
2018-11-27T23:23:07.495Z,11.48
2018-11-27T23:25:38.252Z,9.85
2018-11-27T23:28:07.659Z,10.10
2018-11-27T23:30:37.032Z,11.03
2018-11-27T23:33:07.735Z,9.63
2018-11-27T23:35:37.251Z,10.53
2018-11-27T23:38:06.748Z,10.35
2018-11-27T23:40:35.371Z,9.20
2018-11-27T23:43:05.814Z,10.25
2018-11-27T23:45:35.712Z,10.93
2018-11-27T23:48:05.210Z,9.63
2018-11-27T23:50:33.829Z,9.00
2018-11-27T23:53:02.720Z,9.73
2018-11-27T23:55:31.459Z,8.55
2018-11-27T23:58:01.230Z,10.95
